Time;durP1;ratioP1;P1;durP2;ratioP2;P2;SDS_P1;SDS_P2;PMS_P1;PMS_P2;Temp;Humidity;BMP_temperature;BMP_pressure;BME280_temperature;BME280_humidity;BME280_pressure;Samples;Min_cycle;Max_cycle;Signal;HPM_P1;HPM_P2
2023/06/11 00:00:47;;;;;;;7.20;5.57;;;21.10;79.40;;;;;;5028870;28;20100;-72
2023/06/11 00:03:13;;;;;;;7.75;5.05;;;21.10;79.80;;;;;;5011916;28;20083;-72
2023/06/11 00:05:38;;;;;;;7.07;5.25;;;21.00;80.10;;;;;;5031068;28;20044;-72
2023/06/11 00:08:04;;;;;;;8.70;5.47;;;21.00;80.60;;;;;;5029408;28;20033;-72
2023/06/11 00:10:30;;;;;;;12.77;5.35;;;21.00;81.00;;;;;;5030594;28;20507;-72
2023/06/11 00:12:55;;;;;;;7.05;5.18;;;20.90;81.50;;;;;;5013142;28;20061;-72
2023/06/11 00:15:21;;;;;;;6.80;5.50;;;20.90;81.80;;;;;;5030110;28;20018;-72
2023/06/11 00:17:47;;;;;;;8.57;5.78;;;20.90;82.40;;;;;;5012775;28;20117;-72
2023/06/11 00:20:13;;;;;;;6.32;4.85;;;20.90;82.70;;;;;;5014462;28;20038;-72
2023/06/11 00:22:40;;;;;;;8.90;5.78;;;20.80;83.30;;;;;;5030914;28;20030;-72
2023/06/11 00:25:07;;;;;;;9.10;5.80;;;20.70;83.80;;;;;;5029499;28;20092;-72
2023/06/11 00:27:37;;;;;;;11.88;5.90;;;20.70;84.60;;;;;;5030240;28;20029;-72
2023/06/11 00:30:04;;;;;;;9.35;6.18;;;20.60;85.20;;;;;;5028510;28;20025;-72
2023/06/11 00:32:34;;;;;;;8.63;6.13;;;20.50;85.80;;;;;;5028525;28;20034;-72
2023/06/11 00:35:01;;;;;;;7.50;5.88;;;20.60;86.70;;;;;;5030737;28;20028;-72
2023/06/11 00:37:26;;;;;;;7.95;5.97;;;20.50;87.30;;;;;;5030164;28;20527;-72
2023/06/11 00:39:52;;;;;;;9.80;6.82;;;20.50;88.00;;;;;;5030842;28;20053;-72
2023/06/11 00:42:21;;;;;;;7.40;6.30;;;20.50;88.80;;;;;;5030222;28;20021;-72
2023/06/11 00:44:47;;;;;;;8.65;5.93;;;20.50;89.50;;;;;;5013183;28;20542;-72
2023/06/11 00:47:15;;;;;;;9.27;7.13;;;20.40;90.10;;;;;;5033653;28;20388;-72
2023/06/11 00:49:41;;;;;;;11.20;6.55;;;20.40;90.40;;;;;;5033777;28;20117;-71
2023/06/11 00:52:12;;;;;;;8.10;6.03;;;20.30;90.80;;;;;;5034177;28;20112;-72
2023/06/11 00:54:38;;;;;;;8.35;5.93;;;20.30;91.10;;;;;;5034183;28;20033;-72
2023/06/11 00:57:06;;;;;;;7.95;5.85;;;20.30;91.50;;;;;;5033984;28;20389;-72
2023/06/11 00:59:34;;;;;;;7.75;5.72;;;20.20;91.80;;;;;;5021228;28;20040;-72
2023/06/11 01:02:08;;;;;;;8.60;6.05;;;20.20;92.20;;;;;;5032313;28;20022;-72
2023/06/11 01:04:36;;;;;;;9.30;6.60;;;20.20;92.60;;;;;;5033503;28;20029;-71
2023/06/11 01:07:06;;;;;;;10.07;6.00;;;20.20;92.90;;;;;;5033799;28;20021;-71
2023/06/11 01:09:33;;;;;;;12.40;6.47;;;20.20;93.20;;;;;;5033341;28;20541;-71
2023/06/11 01:11:59;;;;;;;11.52;6.30;;;20.20;93.60;;;;;;5033097;28;20022;-71
2023/06/11 01:14:24;;;;;;;9.70;7.18;;;20.10;93.90;;;;;;5020046;28;20036;-71
2023/06/11 01:17:04;;;;;;;8.02;6.85;;;20.10;94.30;;;;;;5013741;28;20018;-71
2023/06/11 01:20:09;;;;;;;8.38;6.25;;;20.10;94.60;;;;;;5030977;28;20068;-72
2023/06/11 01:23:09;;;;;;;9.98;6.95;;;20.00;94.80;;;;;;5033290;28;20022;-72
2023/06/11 01:26:00;;;;;;;9.30;6.75;;;20.00;95.30;;;;;;5032879;28;20060;-73
2023/06/11 01:28:31;;;;;;;7.82;6.72;;;19.90;95.80;;;;;;5030515;28;20120;-72
2023/06/11 01:31:01;;;;;;;8.43;7.50;;;19.80;96.40;;;;;;5033328;28;20028;-72
2023/06/11 01:33:27;;;;;;;8.82;6.75;;;19.80;96.80;;;;;;5032625;28;20040;-73
2023/06/11 01:35:57;;;;;;;9.93;6.93;;;19.80;97.10;;;;;;5033173;28;20024;-73
2023/06/11 01:38:30;;;;;;;8.43;6.90;;;19.70;97.50;;;;;;5032931;28;20036;-73
2023/06/11 01:40:58;;;;;;;10.32;6.47;;;19.70;97.70;;;;;;5031463;28;20036;-73
2023/06/11 01:43:25;;;;;;;10.55;7.13;;;19.70;98.10;;;;;;5032145;28;20025;-73
2023/06/11 01:45:51;;;;;;;9.27;6.90;;;19.70;98.30;;;;;;5032926;28;20014;-73
2023/06/11 01:48:17;;;;;;;11.02;7.45;;;19.70;98.50;;;;;;5032418;28;20095;-73
2023/06/11 01:50:42;;;;;;;8.85;7.00;;;19.70;98.70;;;;;;5030932;28;20026;-73
2023/06/11 01:53:09;;;;;;;10.25;7.00;;;19.70;99.00;;;;;;5015337;28;20034;-73
2023/06/11 01:55:36;;;;;;;13.27;6.95;;;19.60;99.30;;;;;;5011826;28;20090;-71
2023/06/11 01:58:02;;;;;;;13.02;7.10;;;19.60;99.70;;;;;;4995337;28;20539;-72
2023/06/11 02:00:29;;;;;;;10.07;7.10;;;19.60;99.90;;;;;;5004003;28;20021;-73
2023/06/11 02:03:01;;;;;;;8.60;6.53;;;19.60;99.90;;;;;;5029284;28;20025;-71
2023/06/11 02:05:27;;;;;;;8.20;6.80;;;19.50;99.90;;;;;;5032220;28;20397;-71
2023/06/11 02:07:52;;;;;;;8.43;6.75;;;19.40;99.90;;;;;;5032647;28;20044;-72
2023/06/11 02:10:18;;;;;;;9.48;7.03;;;19.40;99.90;;;;;;5031916;28;20029;-73
2023/06/11 02:12:43;;;;;;;10.63;7.93;;;19.30;99.90;;;;;;5014795;28;20464;-72
2023/06/11 02:15:10;;;;;;;10.95;7.38;;;19.20;99.90;;;;;;5032750;28;20052;-72
2023/06/11 02:17:35;;;;;;;10.13;7.63;;;19.10;99.90;;;;;;5017338;28;20501;-72
2023/06/11 02:20:05;;;;;;;11.43;8.75;;;19.10;99.90;;;;;;5012444;28;20042;-72
2023/06/11 02:22:32;;;;;;;10.88;7.55;;;19.00;99.90;;;;;;5021898;28;20120;-72
2023/06/11 02:24:57;;;;;;;9.27;7.35;;;18.90;99.90;;;;;;5032120;28;20477;-72
2023/06/11 02:27:23;;;;;;;8.70;7.80;;;18.90;99.90;;;;;;5019138;28;20084;-72
2023/06/11 02:29:48;;;;;;;9.68;7.28;;;18.90;99.90;;;;;;5031965;28;20029;-72
2023/06/11 02:32:15;;;;;;;9.68;8.38;;;18.80;99.90;;;;;;5031701;28;20083;-73
2023/06/11 02:34:40;;;;;;;9.65;7.70;;;18.70;99.90;;;;;;5032055;28;20017;-72
2023/06/11 02:37:06;;;;;;;9.77;8.27;;;18.70;99.90;;;;;;5031935;28;20105;-72
2023/06/11 02:39:31;;;;;;;10.13;7.80;;;18.60;99.90;;;;;;5013469;28;20021;-72
2023/06/11 02:41:57;;;;;;;10.38;7.70;;;18.50;99.90;;;;;;5020339;28;20026;-72
2023/06/11 02:44:23;;;;;;;9.82;8.52;;;18.50;99.90;;;;;;5019078;28;20044;-72
2023/06/11 02:46:49;;;;;;;10.32;7.93;;;18.40;99.90;;;;;;5031857;28;20078;-72
2023/06/11 02:49:14;;;;;;;11.73;9.10;;;18.40;99.90;;;;;;5031400;28;20041;-72
2023/06/11 02:51:40;;;;;;;9.18;8.23;;;18.40;99.90;;;;;;5021698;28;20018;-72
2023/06/11 02:54:06;;;;;;;11.10;8.07;;;18.30;99.90;;;;;;5023848;28;20086;-72
2023/06/11 02:56:32;;;;;;;13.95;9.48;;;18.30;99.90;;;;;;5031030;28;20044;-73
2023/06/11 02:58:58;;;;;;;11.93;8.27;;;18.30;99.90;;;;;;5030421;28;20477;-72
2023/06/11 03:01:23;;;;;;;9.80;8.45;;;18.30;99.90;;;;;;5031181;28;20025;-72
2023/06/11 03:03:49;;;;;;;12.20;9.30;;;18.30;99.90;;;;;;5031611;28;20029;-72
2023/06/11 03:06:14;;;;;;;12.60;9.00;;;18.30;99.90;;;;;;5023844;28;20382;-72
2023/06/11 03:08:40;;;;;;;13.45;9.98;;;18.30;99.90;;;;;;5010870;28;20041;-72
2023/06/11 03:11:06;;;;;;;11.05;9.50;;;18.30;99.90;;;;;;5011867;28;20026;-72
2023/06/11 03:13:32;;;;;;;12.80;9.10;;;18.30;99.90;;;;;;5029004;28;20041;-72
2023/06/11 03:15:57;;;;;;;10.05;8.88;;;18.30;99.90;;;;;;5025522;28;20386;-72
2023/06/11 03:18:23;;;;;;;16.75;9.52;;;18.30;99.90;;;;;;5026450;28;20504;-72
2023/06/11 03:20:48;;;;;;;9.77;8.77;;;18.30;99.90;;;;;;5031402;28;20067;-72
2023/06/11 03:23:14;;;;;;;12.00;9.27;;;18.30;99.90;;;;;;5030830;28;20026;-72
2023/06/11 03:25:41;;;;;;;11.27;9.30;;;18.30;99.90;;;;;;5031088;28;20017;-72
2023/06/11 03:28:07;;;;;;;13.15;8.65;;;18.30;99.90;;;;;;5031161;28;20072;-72
2023/06/11 03:30:32;;;;;;;10.32;8.80;;;18.30;99.90;;;;;;5019837;28;20065;-72
2023/06/11 03:32:58;;;;;;;9.90;8.63;;;18.30;99.90;;;;;;5026539;28;20068;-72
2023/06/11 03:35:23;;;;;;;14.93;9.38;;;18.20;99.90;;;;;;5030489;28;20477;-72
2023/06/11 03:37:49;;;;;;;9.85;8.23;;;18.20;99.90;;;;;;5013582;28;20536;-72
2023/06/11 03:40:15;;;;;;;10.23;8.23;;;18.20;99.90;;;;;;5020599;28;20080;-72
2023/06/11 03:42:40;;;;;;;10.07;8.75;;;18.10;99.90;;;;;;5023653;28;20033;-72
2023/06/11 03:45:06;;;;;;;12.13;8.63;;;18.20;99.90;;;;;;5031422;28;20051;-72
2023/06/11 03:47:32;;;;;;;12.48;8.43;;;18.20;99.90;;;;;;5030539;28;20482;-72
2023/06/11 03:49:57;;;;;;;11.05;8.43;;;18.20;99.90;;;;;;5030935;28;20033;-72
2023/06/11 03:52:23;;;;;;;11.20;9.43;;;18.20;99.90;;;;;;5030819;28;20067;-72
2023/06/11 03:54:49;;;;;;;10.90;8.88;;;18.20;99.90;;;;;;5022714;28;20062;-72
2023/06/11 03:57:17;;;;;;;13.75;9.40;;;18.20;99.90;;;;;;5028093;28;20112;-72
2023/06/11 03:59:43;;;;;;;11.07;8.63;;;18.30;99.90;;;;;;5030875;28;20021;-72
2023/06/11 04:02:08;;;;;;;10.73;8.77;;;18.30;99.90;;;;;;5029309;28;20036;-72
2023/06/11 04:04:34;;;;;;;12.60;8.60;;;18.40;99.90;;;;;;5012134;28;20473;-72
2023/06/11 04:07:00;;;;;;;11.07;8.82;;;18.40;99.90;;;;;;5026943;28;20057;-72
2023/06/11 04:09:25;;;;;;;13.07;9.30;;;18.40;99.90;;;;;;5030140;28;20512;-72
2023/06/11 04:11:51;;;;;;;12.23;9.57;;;18.50;99.90;;;;;;5030700;28;20017;-72
2023/06/11 04:14:16;;;;;;;11.57;8.88;;;18.50;99.90;;;;;;5028962;28;20037;-72
2023/06/11 04:16:42;;;;;;;10.63;9.23;;;18.50;99.90;;;;;;5030864;28;20028;-72
2023/06/11 04:19:07;;;;;;;10.50;8.60;;;18.50;99.90;;;;;;5031262;28;20081;-72
2023/06/11 04:21:33;;;;;;;10.57;7.90;;;18.50;99.90;;;;;;5034413;28;20408;-72
2023/06/11 04:23:59;;;;;;;11.80;8.38;;;18.60;99.90;;;;;;5013351;28;20033;-72
2023/06/11 04:26:25;;;;;;;11.90;8.75;;;18.60;99.90;;;;;;5014769;28;20018;-72
2023/06/11 04:28:52;;;;;;;11.18;7.93;;;18.70;99.90;;;;;;5028231;28;20055;-72
2023/06/11 04:31:18;;;;;;;8.90;7.97;;;18.70;99.90;;;;;;5015383;28;20496;-72
2023/06/11 04:33:46;;;;;;;10.52;7.45;;;18.80;99.90;;;;;;5025549;28;20033;-72
2023/06/11 04:36:11;;;;;;;9.93;8.00;;;18.80;99.90;;;;;;5033700;28;20118;-72
2023/06/11 04:38:38;;;;;;;8.68;7.78;;;18.80;99.90;;;;;;5034349;28;20659;-72
2023/06/11 04:41:11;;;;;;;8.68;7.80;;;18.90;99.90;;;;;;5033765;28;20029;-72
2023/06/11 04:43:37;;;;;;;10.10;7.50;;;19.00;99.90;;;;;;5034282;28;20072;-72
2023/06/11 04:46:03;;;;;;;8.27;7.47;;;19.00;99.90;;;;;;5020711;28;20029;-72
2023/06/11 04:48:31;;;;;;;11.85;8.55;;;19.10;99.90;;;;;;5032103;28;20338;-72
2023/06/11 04:50:59;;;;;;;9.60;7.68;;;19.10;99.90;;;;;;5033911;28;20030;-72
2023/06/11 04:53:27;;;;;;;9.00;7.40;;;19.30;99.90;;;;;;5035238;28;20053;-72
2023/06/11 04:55:55;;;;;;;12.50;7.65;;;19.50;99.90;;;;;;5023635;28;20052;-72
2023/06/11 04:58:22;;;;;;;9.88;6.82;;;19.80;99.90;;;;;;5033984;28;20036;-72
2023/06/11 05:00:48;;;;;;;7.53;6.18;;;20.20;99.90;;;;;;5033687;28;20029;-72
2023/06/11 05:03:18;;;;;;;10.68;6.30;;;20.60;99.90;;;;;;5033620;28;20029;-72
2023/06/11 05:05:50;;;;;;;10.27;6.07;;;21.00;99.90;;;;;;5034156;28;20084;-72
2023/06/11 05:08:24;;;;;;;7.95;6.07;;;21.30;99.90;;;;;;5031165;28;20128;-72
2023/06/11 05:10:53;;;;;;;7.45;6.25;;;21.70;99.90;;;;;;5028483;28;20028;-72
2023/06/11 05:13:24;;;;;;;6.95;5.28;;;22.10;99.90;;;;;;5033546;28;20453;-72
2023/06/11 05:15:53;;;;;;;8.13;5.47;;;22.30;99.90;;;;;;5033715;28;20021;-72
2023/06/11 05:18:18;;;;;;;7.60;5.43;;;22.60;99.90;;;;;;5031218;28;20060;-72
2023/06/11 05:20:45;;;;;;;8.45;5.85;;;22.90;99.90;;;;;;5033079;28;20080;-72
2023/06/11 05:23:11;;;;;;;7.95;5.80;;;23.20;99.90;;;;;;5032959;28;20359;-72
2023/06/11 05:25:46;;;;;;;6.60;5.25;;;23.50;99.30;;;;;;5033559;28;20044;-72
2023/06/11 05:28:12;;;;;;;7.38;5.75;;;23.80;98.20;;;;;;5030286;28;20083;-73
2023/06/11 05:30:39;;;;;;;7.00;5.80;;;24.00;97.30;;;;;;5031944;28;20022;-72
2023/06/11 05:33:06;;;;;;;6.47;5.40;;;24.20;96.80;;;;;;5033317;28;20025;-72
2023/06/11 05:35:32;;;;;;;7.53;5.05;;;24.40;96.10;;;;;;5016317;28;20022;-73
2023/06/11 05:38:03;;;;;;;5.60;5.00;;;24.60;95.30;;;;;;5034208;28;20025;-73
2023/06/11 05:40:30;;;;;;;7.63;5.03;;;24.80;94.80;;;;;;5034264;28;20021;-73
2023/06/11 05:42:56;;;;;;;9.00;5.55;;;24.90;93.90;;;;;;5015245;28;20042;-72
2023/06/11 05:45:22;;;;;;;6.28;4.70;;;25.00;93.50;;;;;;5033330;28;20096;-72
2023/06/11 05:47:47;;;;;;;6.50;4.90;;;25.10;92.90;;;;;;5032349;28;20033;-72
2023/06/11 05:50:13;;;;;;;6.20;5.43;;;25.20;92.00;;;;;;5032833;28;20044;-72
2023/06/11 05:52:38;;;;;;;7.50;5.25;;;25.20;91.50;;;;;;5023331;28;20057;-72
2023/06/11 05:55:04;;;;;;;8.90;4.82;;;25.20;91.50;;;;;;5031089;28;20036;-72
2023/06/11 05:57:30;;;;;;;6.60;4.93;;;25.20;90.80;;;;;;5032273;28;20544;-72
2023/06/11 05:59:55;;;;;;;5.05;4.55;;;25.10;90.40;;;;;;5032907;28;20108;-72
2023/06/11 06:02:21;;;;;;;5.05;4.65;;;25.10;90.30;;;;;;5032169;28;20030;-72
2023/06/11 06:04:48;;;;;;;5.80;4.40;;;25.10;90.00;;;;;;5020944;28;20115;-72
2023/06/11 06:07:15;;;;;;;6.45;5.20;;;25.00;89.70;;;;;;5028902;28;20105;-72
2023/06/11 06:09:41;;;;;;;5.43;4.68;;;25.00;89.00;;;;;;5032853;28;20021;-72
2023/06/11 06:12:07;;;;;;;5.10;4.63;;;24.90;88.40;;;;;;5033702;28;20509;-72
2023/06/11 06:14:33;;;;;;;6.32;5.38;;;25.00;88.20;;;;;;5031495;28;20021;-73
2023/06/11 06:16:58;;;;;;;6.93;4.65;;;25.00;87.60;;;;;;5032689;28;20056;-73
2023/06/11 06:19:24;;;;;;;7.03;4.55;;;25.00;87.50;;;;;;5032077;28;20093;-72
2023/06/11 06:21:50;;;;;;;6.05;4.18;;;24.90;87.10;;;;;;5032873;28;20432;-73
2023/06/11 06:24:15;;;;;;;8.07;5.00;;;24.90;87.50;;;;;;5031712;28;20017;-74
2023/06/11 06:26:41;;;;;;;5.25;4.75;;;24.90;87.70;;;;;;5032664;28;20510;-73
2023/06/11 06:29:13;;;;;;;8.25;4.80;;;24.90;87.10;;;;;;5032429;28;20110;-73
2023/06/11 06:31:40;;;;;;;7.55;5.05;;;25.00;87.80;;;;;;5032385;28;20021;-73
2023/06/11 06:34:07;;;;;;;10.60;4.65;;;25.00;86.70;;;;;;5014597;28;20022;-73
2023/06/11 06:36:33;;;;;;;5.35;4.30;;;25.00;86.30;;;;;;5030752;28;20566;-72
2023/06/11 06:38:59;;;;;;;6.57;4.60;;;25.00;86.40;;;;;;5024964;28;20109;-73
2023/06/11 06:41:24;;;;;;;6.00;4.95;;;25.00;86.50;;;;;;5031767;28;20028;-73
2023/06/11 06:43:50;;;;;;;5.25;4.75;;;25.10;86.40;;;;;;5032316;28;20017;-73
2023/06/11 06:46:15;;;;;;;7.03;5.20;;;25.10;86.30;;;;;;5031802;28;20032;-73
2023/06/11 06:48:41;;;;;;;6.03;4.82;;;25.10;86.60;;;;;;5028712;28;20037;-73
2023/06/11 06:51:07;;;;;;;6.20;5.22;;;25.10;86.60;;;;;;5021732;28;20021;-73
2023/06/11 06:53:32;;;;;;;5.82;4.53;;;25.10;86.10;;;;;;5032245;28;20029;-73
2023/06/11 06:56:00;;;;;;;7.22;4.43;;;25.10;86.40;;;;;;5032174;28;20022;-73
2023/06/11 06:58:28;;;;;;;6.78;5.07;;;25.10;86.20;;;;;;5031651;28;20045;-73
2023/06/11 07:00:55;;;;;;;4.97;4.38;;;25.20;86.40;;;;;;5030486;28;20025;-73
2023/06/11 07:03:21;;;;;;;8.35;5.00;;;25.30;86.60;;;;;;5031693;28;20117;-73
2023/06/11 07:05:46;;;;;;;8.15;5.00;;;25.40;86.40;;;;;;5032301;28;20088;-73
2023/06/11 07:08:13;;;;;;;5.43;4.78;;;25.40;86.00;;;;;;5031460;28;20031;-74
2023/06/11 07:10:47;;;;;;;5.25;4.63;;;25.40;85.90;;;;;;5025122;28;20435;-72
2023/06/11 07:13:13;;;;;;;7.88;4.90;;;25.40;86.20;;;;;;5023977;28;20057;-73
2023/06/11 07:15:38;;;;;;;8.07;5.80;;;25.50;85.80;;;;;;5031484;28;20139;-72
2023/06/11 07:18:04;;;;;;;6.80;5.25;;;25.50;85.80;;;;;;5031788;28;20055;-73
2023/06/11 07:20:30;;;;;;;7.25;5.45;;;25.50;85.60;;;;;;5031121;28;20045;-72
2023/06/11 07:22:55;;;;;;;5.38;4.88;;;25.60;85.90;;;;;;5030106;28;20034;-72
2023/06/11 07:25:21;;;;;;;6.85;5.25;;;25.60;85.90;;;;;;5031523;28;20017;-72
2023/06/11 07:27:46;;;;;;;7.53;5.55;;;25.80;85.80;;;;;;5030915;28;20066;-72
2023/06/11 07:30:12;;;;;;;12.70;5.88;;;25.90;85.60;;;;;;5033315;28;20507;-73
2023/06/11 07:32:38;;;;;;;6.65;5.32;;;25.90;85.20;;;;;;5035182;28;20036;-72
2023/06/11 07:35:04;;;;;;;7.35;4.97;;;25.90;85.00;;;;;;5032737;28;20506;-72
2023/06/11 07:37:31;;;;;;;7.03;5.30;;;26.00;84.80;;;;;;5014477;28;20439;-72
2023/06/11 07:39:57;;;;;;;6.20;5.05;;;26.10;84.30;;;;;;5032261;28;20030;-72
2023/06/11 07:42:22;;;;;;;6.18;4.95;;;26.20;84.40;;;;;;5028187;28;20160;-73
2023/06/11 07:44:48;;;;;;;6.40;5.45;;;26.30;84.30;;;;;;5032452;28;20029;-71
2023/06/11 07:47:13;;;;;;;8.02;5.35;;;26.30;83.60;;;;;;5031573;28;20026;-72
2023/06/11 07:49:39;;;;;;;7.60;5.05;;;26.40;83.80;;;;;;5035159;28;20056;-73
2023/06/11 07:52:05;;;;;;;6.32;4.50;;;26.50;83.70;;;;;;5034384;28;20068;-72
2023/06/11 07:54:31;;;;;;;8.32;4.90;;;26.60;83.70;;;;;;5018819;28;20030;-72
2023/06/11 07:56:56;;;;;;;5.45;4.85;;;26.70;82.90;;;;;;5035658;28;20143;-72
2023/06/11 07:59:22;;;;;;;6.15;4.70;;;26.80;82.80;;;;;;5034628;28;20029;-73
2023/06/11 08:01:47;;;;;;;5.57;4.45;;;26.90;81.80;;;;;;5034883;28;20021;-72
2023/06/11 08:04:13;;;;;;;4.90;4.40;;;26.90;81.10;;;;;;5034746;28;20076;-72
2023/06/11 08:06:39;;;;;;;5.68;4.25;;;27.00;81.30;;;;;;5031995;28;20034;-72
2023/06/11 08:09:05;;;;;;;6.95;4.55;;;27.10;81.40;;;;;;5015054;28;20125;-73
2023/06/11 08:11:31;;;;;;;5.78;4.70;;;27.20;81.30;;;;;;5031074;28;20112;-73
2023/06/11 08:13:56;;;;;;;7.90;4.68;;;27.30;80.80;;;;;;5034695;28;20113;-72
2023/06/11 08:16:22;;;;;;;4.80;4.30;;;27.40;79.90;;;;;;5034206;28;20075;-73
2023/06/11 08:18:48;;;;;;;4.75;4.35;;;27.40;79.20;;;;;;5018874;28;20033;-73
2023/06/11 08:21:14;;;;;;;6.43;4.85;;;27.40;79.80;;;;;;5034350;28;20018;-73
2023/06/11 08:23:39;;;;;;;5.53;4.82;;;27.50;78.80;;;;;;5034657;28;20068;-73
2023/06/11 08:26:05;;;;;;;5.88;4.43;;;27.60;78.50;;;;;;5034621;28;20052;-73
2023/06/11 08:28:31;;;;;;;4.38;3.97;;;27.70;78.60;;;;;;5032199;28;20037;-72
2023/06/11 08:30:57;;;;;;;4.82;4.32;;;27.80;78.70;;;;;;5034269;28;20511;-72
2023/06/11 08:33:23;;;;;;;4.47;4.07;;;27.90;77.90;;;;;;5032397;28;20025;-73
2023/06/11 08:35:48;;;;;;;6.95;4.28;;;28.00;77.20;;;;;;5034114;28;20029;-73
2023/06/11 08:38:14;;;;;;;5.40;3.92;;;28.00;77.40;;;;;;5033985;28;20033;-72
2023/06/11 08:40:41;;;;;;;6.70;5.22;;;28.00;75.90;;;;;;5034266;28;20024;-72
2023/06/11 08:43:07;;;;;;;7.13;5.00;;;28.10;75.90;;;;;;5028577;28;20099;-72
2023/06/11 08:45:33;;;;;;;8.25;4.35;;;28.20;75.90;;;;;;5015829;28;20069;-72
2023/06/11 08:48:02;;;;;;;6.72;4.22;;;28.20;75.40;;;;;;5034124;28;20108;-72
2023/06/11 08:50:29;;;;;;;5.70;4.13;;;28.30;75.20;;;;;;5033671;28;20504;-72
2023/06/11 08:52:54;;;;;;;5.25;4.30;;;28.30;74.80;;;;;;5033834;28;20064;-72
2023/06/11 08:55:20;;;;;;;5.18;4.45;;;28.40;74.60;;;;;;5033759;28;20049;-72
2023/06/11 08:57:46;;;;;;;6.18;4.22;;;28.50;74.20;;;;;;5033674;28;20033;-72
2023/06/11 09:00:12;;;;;;;6.13;3.97;;;28.60;73.70;;;;;;5032962;28;20105;-72
2023/06/11 09:02:39;;;;;;;4.32;3.50;;;28.70;72.50;;;;;;5033843;28;20057;-72
2023/06/11 09:05:04;;;;;;;5.22;4.20;;;28.70;72.00;;;;;;5033846;28;20049;-72
2023/06/11 09:07:30;;;;;;;4.85;3.72;;;28.70;72.10;;;;;;5022766;28;20537;-72
2023/06/11 09:10:10;;;;;;;3.67;3.33;;;28.80;72.10;;;;;;5013883;28;20065;-72
2023/06/11 09:12:36;;;;;;;6.20;4.22;;;28.90;71.80;;;;;;5017284;28;20101;-72
2023/06/11 09:15:04;;;;;;;7.53;4.10;;;29.00;70.70;;;;;;5033565;28;20109;-72
2023/06/11 09:17:34;;;;;;;4.20;3.70;;;29.00;72.50;;;;;;5033151;28;20017;-72
2023/06/11 09:20:08;;;;;;;8.98;3.88;;;29.10;71.90;;;;;;5032898;28;20509;-72
2023/06/11 09:22:36;;;;;;;6.72;4.07;;;29.20;71.40;;;;;;5032963;28;20025;-72
2023/06/11 09:25:09;;;;;;;6.13;3.95;;;29.40;71.00;;;;;;5033551;28;20030;-73
2023/06/11 09:27:38;;;;;;;4.05;3.65;;;29.50;70.70;;;;;;5032688;28;20033;-73
2023/06/11 09:30:08;;;;;;;3.72;3.33;;;29.60;69.80;;;;;;5032409;28;20424;-74
2023/06/11 09:32:37;;;;;;;7.25;4.00;;;29.70;69.60;;;;;;5017093;28;20021;-72
2023/06/11 09:35:05;;;;;;;5.60;3.63;;;29.70;70.00;;;;;;5033528;28;20087;-72
2023/06/11 09:37:38;;;;;;;5.15;3.47;;;29.80;68.60;;;;;;5032669;28;20039;-72
2023/06/11 09:40:05;;;;;;;7.32;3.53;;;29.90;68.20;;;;;;5031620;28;20026;-72
2023/06/11 09:42:34;;;;;;;4.35;3.50;;;29.90;68.20;;;;;;5024159;28;20033;-72
2023/06/11 09:45:01;;;;;;;6.13;3.15;;;30.10;67.60;;;;;;5017777;28;20030;-72
2023/06/11 09:47:31;;;;;;;6.22;3.70;;;30.10;66.50;;;;;;5012896;28;20113;-73
2023/06/11 09:50:01;;;;;;;3.97;3.22;;;30.10;65.90;;;;;;5028562;28;20554;-72
2023/06/11 09:52:28;;;;;;;4.25;3.47;;;30.10;66.20;;;;;;5032452;28;20025;-72
2023/06/11 09:54:54;;;;;;;4.25;3.80;;;30.10;65.50;;;;;;5024949;28;20025;-72
2023/06/11 09:57:21;;;;;;;4.07;2.78;;;30.20;65.30;;;;;;5032317;28;20021;-72
2023/06/11 09:59:48;;;;;;;4.32;3.47;;;30.30;65.30;;;;;;5032609;28;20021;-72
2023/06/11 10:02:14;;;;;;;4.75;3.50;;;30.30;64.40;;;;;;5030796;28;20033;-72
2023/06/11 10:04:40;;;;;;;4.00;3.08;;;30.30;65.70;;;;;;5032367;28;20041;-72
2023/06/11 10:07:09;;;;;;;4.72;3.13;;;30.40;64.50;;;;;;5032811;28;20024;-72
2023/06/11 10:09:34;;;;;;;3.55;3.05;;;30.40;64.40;;;;;;5032060;28;20033;-72
2023/06/11 10:12:01;;;;;;;5.28;3.00;;;30.40;64.20;;;;;;5022777;28;20026;-72
2023/06/11 10:14:26;;;;;;;5.18;3.00;;;30.60;63.40;;;;;;5030399;28;20034;-72
2023/06/11 10:16:54;;;;;;;3.17;2.88;;;30.70;63.20;;;;;;5031930;28;20018;-72
2023/06/11 10:19:21;;;;;;;5.65;3.47;;;30.90;63.50;;;;;;5031652;28;20041;-72
2023/06/11 10:21:50;;;;;;;4.38;3.17;;;31.00;61.90;;;;;;5031854;28;20028;-72
2023/06/11 10:24:24;;;;;;;4.93;3.33;;;31.00;61.80;;;;;;5031938;28;20033;-72
2023/06/11 10:27:13;;;;;;;3.40;2.95;;;31.00;61.40;;;;;;5031892;28;20084;-72
2023/06/11 10:29:41;;;;;;;3.80;2.42;;;31.00;61.30;;;;;;5028740;28;20110;-71
2023/06/11 10:32:21;;;;;;;3.38;2.67;;;31.00;60.80;;;;;;5031756;28;20028;-71
2023/06/11 10:34:58;;;;;;;3.83;2.95;;;31.10;60.40;;;;;;5032163;28;20098;-72
2023/06/11 10:37:31;;;;;;;4.63;2.55;;;31.20;61.30;;;;;;5029907;28;20057;-72
2023/06/11 10:39:56;;;;;;;3.15;2.63;;;31.30;59.20;;;;;;5032261;28;20021;-71
2023/06/11 10:42:36;;;;;;;3.50;2.33;;;31.30;58.80;;;;;;5031846;28;20097;-71
2023/06/11 10:45:14;;;;;;;4.07;2.40;;;31.30;58.60;;;;;;5031998;28;20416;-71
2023/06/11 10:47:51;;;;;;;3.22;2.05;;;31.30;58.40;;;;;;5032007;28;20036;-71
2023/06/11 10:50:24;;;;;;;3.65;2.65;;;31.30;58.00;;;;;;5027558;28;20355;-71
2023/06/11 10:53:02;;;;;;;5.00;2.50;;;31.40;58.80;;;;;;5021538;28;20104;-71
2023/06/11 10:55:32;;;;;;;4.63;2.40;;;31.40;58.80;;;;;;5027501;28;20103;-71
2023/06/11 10:58:00;;;;;;;3.80;2.53;;;31.50;58.00;;;;;;5031830;28;20100;-71
2023/06/11 11:00:28;;;;;;;3.47;1.83;;;31.50;58.30;;;;;;5026839;28;20022;-71
2023/06/11 11:02:56;;;;;;;3.78;2.38;;;31.50;57.10;;;;;;5025657;28;20066;-71
2023/06/11 11:05:22;;;;;;;2.78;1.90;;;31.50;56.50;;;;;;5031319;28;20025;-71
2023/06/11 11:07:48;;;;;;;3.88;2.20;;;31.60;55.80;;;;;;5031110;28;20033;-71
2023/06/11 11:10:19;;;;;;;3.47;1.95;;;31.70;55.40;;;;;;5031244;28;20037;-72
2023/06/11 11:12:46;;;;;;;3.05;2.03;;;31.60;55.10;;;;;;5031690;28;20022;-71
2023/06/11 11:15:12;;;;;;;2.70;1.50;;;31.60;54.60;;;;;;5025135;28;20040;-71
2023/06/11 11:17:42;;;;;;;1.88;1.50;;;31.60;55.60;;;;;;5011918;28;20021;-71
2023/06/11 11:20:14;;;;;;;3.60;1.38;;;31.60;55.30;;;;;;5027786;28;20140;-71
2023/06/11 11:22:39;;;;;;;;;;;31.60;55.30;;;;;;5030582;28;20047;-71
2023/06/11 11:25:07;;;;;;;2.40;1.48;;;31.70;55.70;;;;;;5027963;28;20361;-71
2023/06/11 11:27:33;;;;;;;1.85;1.30;;;31.80;54.60;;;;;;5030093;28;20490;-71
2023/06/11 11:30:02;;;;;;;3.30;1.52;;;31.80;55.60;;;;;;5030850;28;20079;-71
2023/06/11 11:32:30;;;;;;;2.63;1.60;;;31.80;54.00;;;;;;5030938;28;20025;-71
2023/06/11 11:34:56;;;;;;;3.20;1.40;;;31.80;53.40;;;;;;5030805;28;20036;-71
2023/06/11 11:37:22;;;;;;;2.22;1.30;;;31.80;53.10;;;;;;5030992;28;20021;-71
2023/06/11 11:39:49;;;;;;;3.58;1.35;;;31.70;53.40;;;;;;5027987;28;20032;-71
2023/06/11 11:42:15;;;;;;;2.50;1.50;;;31.80;53.50;;;;;;5011119;28;20084;-71
2023/06/11 11:44:42;;;;;;;1.92;1.40;;;31.80;53.10;;;;;;5023451;28;20041;-71
2023/06/11 11:47:09;;;;;;;2.10;1.65;;;31.90;53.30;;;;;;5031033;28;20025;-71
2023/06/11 11:49:34;;;;;;;3.17;1.80;;;31.90;53.40;;;;;;5029259;28;20120;-72
2023/06/11 11:52:00;;;;;;;3.63;1.77;;;32.00;54.20;;;;;;5029144;28;20437;-71
2023/06/11 11:54:26;;;;;;;4.15;2.17;;;32.00;54.50;;;;;;5030700;28;20091;-71
2023/06/11 11:57:07;;;;;;;4.20;1.77;;;32.10;54.60;;;;;;5030979;28;20057;-71
2023/06/11 11:59:39;;;;;;;2.60;1.70;;;32.10;53.10;;;;;;5030394;28;20037;-71
2023/06/11 12:02:07;;;;;;;3.72;2.45;;;32.10;53.20;;;;;;5030576;28;20061;-71
2023/06/11 12:04:38;;;;;;;4.15;2.17;;;32.10;52.90;;;;;;5030735;28;20083;-71
2023/06/11 12:07:06;;;;;;;2.50;1.85;;;32.10;52.20;;;;;;5030829;28;20033;-71
2023/06/11 12:09:33;;;;;;;3.25;2.28;;;31.90;52.50;;;;;;5030458;28;20037;-72
2023/06/11 12:11:58;;;;;;;3.00;1.90;;;31.90;52.50;;;;;;5030739;28;20028;-72
2023/06/11 12:14:24;;;;;;;7.60;2.10;;;31.80;52.40;;;;;;5029661;28;20018;-71
2023/06/11 12:16:49;;;;;;;4.13;2.05;;;31.90;52.40;;;;;;5020368;28;20477;-71
2023/06/11 12:19:17;;;;;;;3.03;1.95;;;32.00;53.10;;;;;;5030212;28;20140;-72
2023/06/11 12:21:42;;;;;;;2.63;1.60;;;32.20;52.20;;;;;;5030685;28;20060;-72
2023/06/11 12:24:17;;;;;;;3.70;1.88;;;32.20;52.40;;;;;;5030571;28;20437;-71
2023/06/11 12:26:46;;;;;;;2.40;1.95;;;32.20;52.30;;;;;;5012476;28;20036;-71
2023/06/11 12:29:12;;;;;;;5.55;1.98;;;32.30;52.30;;;;;;5010496;28;20129;-72
2023/06/11 12:31:38;;;;;;;2.20;1.73;;;32.20;51.70;;;;;;5027961;28;20104;-71
2023/06/11 12:34:05;;;;;;;2.88;1.90;;;32.10;52.10;;;;;;5030672;28;20025;-72
2023/06/11 12:36:32;;;;;;;5.03;2.10;;;32.30;51.70;;;;;;5030315;28;20595;-71
2023/06/11 12:39:04;;;;;;;2.35;1.55;;;32.40;51.90;;;;;;5029019;28;20083;-71
2023/06/11 12:41:31;;;;;;;2.50;1.55;;;32.40;52.00;;;;;;5033861;28;20461;-71
2023/06/11 12:43:57;;;;;;;3.67;1.60;;;32.50;51.50;;;;;;5034114;28;20112;-71
2023/06/11 12:46:22;;;;;;;3.35;1.80;;;32.60;51.20;;;;;;5033849;28;20025;-71